Tipton, Illinois
Current Conditions -  °F | °C
As of 12:53 PM on Saturday 25 Oct 2014 (Local Time) from KCPS Reporting Station
Clear Clear  
Wind Chill: 78°   Ceiling: Unl
Heat Index: 80°   Visibility: 10mi
Dew Point: 61°   Wind: 8mph
Humidity: 56%   Direction: 320°NW
Pressure: 30.02"   Gusts: NA
Location:  38.3034°N, 90.1358°W
Report Text: KCPS 251753Z 32007KT 10SM CLR 26/16 A3002 RMK AO2 SLP164 T02560161 10256 20106 58006 $
Loading
Personal Weather Stations






























Interactive Weather Map
Tropical Storm Tracking
New forecast layout! Learn more

10-Day Weather Forecast

Advertisements
Track Severe Weather on mobile